Time;durP1;ratioP1;P1;durP2;ratioP2;P2;SDS_P1;SDS_P2;PMS_P1;PMS_P2;Temp;Humidity;BMP_temperature;BMP_pressure;BME280_temperature;BME280_humidity;BME280_pressure;Samples;Min_cycle;Max_cycle;Signal;HPM_P1;HPM_P2
2022/05/29 00:01:54;;;;;;;2.17;1.80;;;8.20;99.90;;;;;;4971818;28;20491;-87
2022/05/29 00:04:20;;;;;;;1.90;1.70;;;8.00;99.90;;;;;;4971859;28;20116;-85
2022/05/29 00:06:49;;;;;;;2.40;1.60;;;8.00;99.90;;;;;;4987162;28;20038;-85
2022/05/29 00:09:25;;;;;;;2.60;1.75;;;7.90;99.90;;;;;;4972044;28;20015;-85
2022/05/29 00:11:51;;;;;;;2.42;1.80;;;7.70;99.90;;;;;;4971758;28;20031;-85
2022/05/29 00:14:17;;;;;;;2.03;1.55;;;7.50;99.90;;;;;;4986549;28;20393;-85
2022/05/29 00:16:43;;;;;;;2.80;1.75;;;7.50;99.90;;;;;;4972137;28;20049;-85
2022/05/29 00:19:09;;;;;;;3.05;1.45;;;7.40;99.90;;;;;;4970686;28;20475;-85
2022/05/29 00:21:36;;;;;;;2.70;1.63;;;7.30;99.90;;;;;;4971349;28;20023;-85
2022/05/29 00:24:02;;;;;;;3.75;1.60;;;7.20;99.90;;;;;;4971518;28;20074;-85
2022/05/29 00:26:28;;;;;;;2.35;2.00;;;7.10;99.90;;;;;;4971467;28;20038;-85
2022/05/29 00:28:53;;;;;;;3.20;1.70;;;7.10;99.90;;;;;;4996999;23;20052;-80
2022/05/29 00:31:19;;;;;;;3.42;1.90;;;7.10;99.90;;;;;;4991691;28;20042;-80
2022/05/29 00:33:45;;;;;;;1.65;1.50;;;7.00;99.90;;;;;;4990258;28;20049;-80
2022/05/29 00:36:14;;;;;;;2.15;1.95;;;7.00;99.90;;;;;;4990323;28;20391;-80
2022/05/29 00:38:42;;;;;;;2.05;1.80;;;7.00;99.90;;;;;;4990449;28;20494;-80
2022/05/29 00:41:27;;;;;;;4.90;2.45;;;6.90;99.90;;;;;;4991017;28;20026;-80
2022/05/29 00:44:14;;;;;;;2.03;1.83;;;6.80;99.90;;;;;;4992181;28;20076;-80
2022/05/29 00:46:55;;;;;;;2.35;1.95;;;6.70;99.90;;;;;;5025810;28;20029;-80
2022/05/29 00:49:24;;;;;;;2.67;2.47;;;6.70;99.90;;;;;;4991976;28;20056;-80
2022/05/29 00:52:05;;;;;;;3.17;2.10;;;6.60;99.90;;;;;;4991704;28;20268;-80
2022/05/29 00:54:37;;;;;;;3.60;2.20;;;6.60;99.90;;;;;;4991993;28;20030;-81
2022/05/29 00:57:04;;;;;;;2.17;1.90;;;6.50;99.90;;;;;;4991958;28;20468;-80
2022/05/29 00:59:33;;;;;;;7.57;2.88;;;6.40;99.90;;;;;;4996489;28;20022;-81
2022/05/29 01:02:02;;;;;;;8.80;2.80;;;6.30;99.90;;;;;;4992321;28;20022;-80
2022/05/29 01:04:29;;;;;;;4.70;2.42;;;6.30;99.90;;;;;;4992097;28;20018;-80
2022/05/29 01:06:55;;;;;;;4.43;2.60;;;6.30;99.90;;;;;;4992094;28;20133;-81
2022/05/29 01:09:21;;;;;;;2.85;2.22;;;6.30;99.90;;;;;;4991893;28;20108;-80
2022/05/29 01:12:14;;;;;;;3.03;2.72;;;6.30;99.90;;;;;;4992168;28;20494;-80
2022/05/29 01:14:43;;;;;;;3.08;2.25;;;6.20;99.90;;;;;;4995439;28;20105;-81
2022/05/29 01:17:29;;;;;;;4.70;2.40;;;6.10;99.90;;;;;;4993853;28;20537;-80
2022/05/29 01:20:30;;;;;;;2.35;2.13;;;6.00;99.90;;;;;;4994968;28;20022;-81
2022/05/29 01:23:10;;;;;;;3.88;2.25;;;6.00;99.90;;;;;;4995294;28;20014;-80
2022/05/29 01:25:45;;;;;;;2.75;2.35;;;6.00;99.90;;;;;;4994894;28;20026;-80
2022/05/29 01:28:41;;;;;;;4.45;2.58;;;6.00;99.90;;;;;;5016816;23;20033;-83
2022/05/29 01:31:14;;;;;;;5.25;2.28;;;6.00;99.90;;;;;;4975899;28;20039;-83
2022/05/29 01:33:43;;;;;;;2.85;2.13;;;6.00;99.90;;;;;;4975948;28;20018;-83
2022/05/29 01:36:11;;;;;;;3.00;2.00;;;6.10;99.90;;;;;;4975693;28;20035;-83
2022/05/29 01:38:46;;;;;;;2.70;1.88;;;6.20;99.90;;;;;;4974327;28;20166;-83
2022/05/29 01:41:41;;;;;;;2.45;2.10;;;6.30;99.90;;;;;;4982297;28;20026;-82
2022/05/29 01:44:36;;;;;;;2.28;1.75;;;6.40;99.90;;;;;;4979124;28;20033;-83
2022/05/29 01:47:17;;;;;;;2.30;1.90;;;6.60;99.90;;;;;;4979552;28;20051;-84
2022/05/29 01:49:59;;;;;;;2.75;2.15;;;6.70;99.90;;;;;;4975023;28;20019;-83
2022/05/29 01:52:49;;;;;;;1.98;1.77;;;6.70;99.90;;;;;;4975699;28;20023;-84
2022/05/29 01:55:17;;;;;;;1.70;1.60;;;6.70;99.90;;;;;;4991693;28;20031;-83
2022/05/29 01:57:47;;;;;;;2.63;1.98;;;6.60;99.90;;;;;;4975071;28;20026;-83
2022/05/29 02:00:17;;;;;;;2.13;1.75;;;6.60;99.90;;;;;;4976080;28;20093;-83
2022/05/29 02:03:04;;;;;;;1.52;1.40;;;6.50;99.90;;;;;;4974394;28;20387;-84
2022/05/29 02:05:36;;;;;;;2.30;1.40;;;6.50;99.90;;;;;;4975373;28;20074;-83
2022/05/29 02:08:26;;;;;;;1.73;1.42;;;6.50;99.90;;;;;;4974128;28;20027;-83
2022/05/29 02:10:56;;;;;;;2.50;1.55;;;6.40;99.90;;;;;;4974663;28;20030;-84
2022/05/29 02:13:28;;;;;;;3.40;1.52;;;6.40;99.90;;;;;;4974964;28;20022;-84
2022/05/29 02:16:10;;;;;;;2.35;1.40;;;6.50;99.90;;;;;;4973746;28;20085;-84
2022/05/29 02:18:53;;;;;;;1.98;1.67;;;6.50;99.90;;;;;;4981726;28;20019;-84
2022/05/29 02:21:25;;;;;;;2.85;1.58;;;6.40;99.90;;;;;;4980778;28;20106;-84
2022/05/29 02:23:55;;;;;;;1.35;1.10;;;6.50;99.90;;;;;;4974885;28;20027;-84
2022/05/29 02:26:24;;;;;;;3.00;1.98;;;6.60;99.90;;;;;;4974874;28;20034;-84
2022/05/29 02:28:58;;;;;;;2.05;1.63;;;6.60;99.90;;;;;;4991026;23;20054;-80
2022/05/29 02:31:48;;;;;;;3.03;1.50;;;6.60;99.90;;;;;;4959415;28;20118;-80
2022/05/29 02:34:18;;;;;;;1.95;1.60;;;6.60;99.90;;;;;;4955450;28;20039;-80
2022/05/29 02:36:53;;;;;;;2.10;1.13;;;6.60;99.90;;;;;;4955067;28;20027;-81
2022/05/29 02:39:43;;;;;;;1.13;1.10;;;6.50;99.90;;;;;;4980130;28;20031;-80
2022/05/29 02:42:35;;;;;;;1.60;1.50;;;6.50;99.90;;;;;;4948760;28;20440;-80
2022/05/29 02:45:20;;;;;;;1.40;1.30;;;6.40;99.90;;;;;;4947996;28;20045;-80
2022/05/29 02:48:08;;;;;;;1.40;1.30;;;6.40;99.90;;;;;;4949748;28;20035;-80
2022/05/29 02:50:49;;;;;;;4.10;1.60;;;6.40;99.90;;;;;;4950367;28;20078;-80
2022/05/29 02:53:16;;;;;;;2.00;1.73;;;6.40;99.90;;;;;;4950001;28;20028;-80
2022/05/29 02:55:43;;;;;;;6.22;1.92;;;6.40;99.90;;;;;;4961412;28;20023;-80
2022/05/29 02:58:24;;;;;;;3.33;1.90;;;6.40;99.90;;;;;;4953294;28;20037;-80
2022/05/29 03:01:04;;;;;;;1.67;1.35;;;6.40;99.90;;;;;;4958626;28;20031;-80
2022/05/29 03:04:00;;;;;;;1.48;1.38;;;6.40;99.90;;;;;;4954558;28;20031;-80
2022/05/29 03:06:58;;;;;;;1.80;1.58;;;6.30;99.90;;;;;;4953117;28;20046;-80
2022/05/29 03:09:48;;;;;;;3.65;1.80;;;6.40;99.90;;;;;;4947962;28;20135;-80
2022/05/29 03:12:40;;;;;;;3.00;1.58;;;6.40;99.90;;;;;;4947474;28;20023;-80
2022/05/29 03:15:24;;;;;;;5.53;1.63;;;6.40;99.90;;;;;;4953630;28;20564;-80
2022/05/29 03:18:15;;;;;;;3.15;1.40;;;6.30;99.90;;;;;;4953876;28;20027;-80
2022/05/29 03:20:49;;;;;;;4.25;1.67;;;6.30;99.90;;;;;;4951175;28;20027;-80
2022/05/29 03:23:20;;;;;;;2.45;1.25;;;6.20;99.90;;;;;;4954134;28;20511;-80
2022/05/29 03:25:52;;;;;;;1.30;1.20;;;6.10;99.90;;;;;;4946687;28;20035;-80
2022/05/29 03:28:21;;;;;;;;;;;6.00;99.90;;;;;;4988687;23;20019;-82
2022/05/29 03:30:49;;;;;;;1.42;1.33;;;5.90;99.90;;;;;;4970769;28;19914;-84
2022/05/29 03:33:16;;;;;;;1.23;1.17;;;6.00;99.90;;;;;;4973348;28;20101;-83
2022/05/29 03:35:53;;;;;;;2.78;1.40;;;6.00;99.90;;;;;;4966020;28;20023;-84
2022/05/29 03:38:20;;;;;;;1.92;1.40;;;5.90;99.90;;;;;;4973312;28;20027;-84
2022/05/29 18:23:45;;;;;;;0.20;0.20;;;14.60;80.90;;;;;;5090292;27;20958;-90
2022/05/29 18:26:23;;;;;;;0.90;0.40;;;13.80;81.90;;;;;;5086591;28;20024;-88
2022/05/29 18:28:51;;;;;;;0.30;0.20;;;13.60;84.10;;;;;;5092901;28;20044;-92
2022/05/29 18:31:17;;;;;;;0.85;0.30;;;13.50;89.70;;;;;;5082088;28;20020;-93
2022/05/29 18:33:42;;;;;;;0.30;0.20;;;13.50;91.70;;;;;;5091547;28;20850;-87
2022/05/29 18:36:08;;;;;;;1.75;0.30;;;13.40;87.40;;;;;;5080002;28;20028;-85
2022/05/29 18:38:34;;;;;;;0.57;0.50;;;13.30;90.90;;;;;;5086607;28;20052;-91
2022/05/29 18:41:00;;;;;;;0.47;0.40;;;13.30;89.70;;;;;;5093304;28;20017;-89
2022/05/29 18:43:26;;;;;;;3.70;0.40;;;13.20;89.70;;;;;;5085891;28;20036;-92
2022/05/29 18:45:52;;;;;;;0.45;0.40;;;13.10;91.00;;;;;;5094531;28;20020;-90
2022/05/29 18:48:18;;;;;;;1.83;0.40;;;13.10;91.20;;;;;;5096577;28;20097;-95
2022/05/29 18:50:47;;;;;;;0.52;0.40;;;13.00;92.60;;;;;;5103117;28;20043;-93
2022/05/29 18:53:13;;;;;;;1.13;0.57;;;13.00;94.20;;;;;;5091363;28;20027;-91
2022/05/29 18:55:39;;;;;;;0.93;0.50;;;12.80;94.50;;;;;;5095442;28;20020;-95
2022/05/29 18:58:05;;;;;;;2.22;0.57;;;12.70;96.30;;;;;;5098565;28;20024;-94
2022/05/29 19:00:31;;;;;;;2.30;0.47;;;12.60;96.30;;;;;;5075499;22;20041;-86
2022/05/29 19:03:00;;;;;;;0.52;0.52;;;12.50;98.40;;;;;;5041593;28;20041;-90
2022/05/29 19:05:26;;;;;;;0.70;0.50;;;12.40;98.50;;;;;;5042769;28;20029;-80
2022/05/29 19:07:52;;;;;;;1.95;0.40;;;12.30;99.90;;;;;;5040667;28;20085;-80
2022/05/29 19:10:18;;;;;;;1.95;0.65;;;12.30;99.90;;;;;;5040718;28;20029;-82
2022/05/29 19:12:44;;;;;;;0.60;0.60;;;12.20;99.90;;;;;;5031971;28;20021;-81
2022/05/29 19:15:12;;;;;;;0.50;0.35;;;12.10;99.90;;;;;;5035189;28;20033;-81
2022/05/29 19:20:22;;;;;;;0.30;0.30;;;12.00;99.90;;;;;;5041388;28;20048;-82
2022/05/29 19:22:48;;;;;;;0.40;0.30;;;12.00;99.90;;;;;;5042404;28;20037;-83
2022/05/29 19:25:13;;;;;;;0.40;0.40;;;11.90;99.90;;;;;;5029105;28;20028;-83
2022/05/29 19:27:39;;;;;;;0.43;0.30;;;11.90;99.90;;;;;;5030008;28;20043;-83
2022/05/29 19:30:10;;;;;;;0.77;0.40;;;11.80;99.90;;;;;;5029044;28;20092;-82
2022/05/29 19:32:38;;;;;;;0.65;0.65;;;11.80;99.90;;;;;;5032881;28;20021;-82
2022/05/29 19:35:05;;;;;;;1.38;0.32;;;11.80;99.90;;;;;;5030728;28;20029;-81
2022/05/29 19:37:34;;;;;;;0.73;0.30;;;11.80;99.90;;;;;;5032026;28;20112;-81
2022/05/29 19:40:00;;;;;;;0.40;0.35;;;11.80;99.90;;;;;;5032789;28;20017;-79
2022/05/29 19:42:26;;;;;;;0.52;0.50;;;11.80;99.90;;;;;;5031977;28;20026;-79
2022/05/29 19:44:51;;;;;;;0.73;0.73;;;11.80;99.90;;;;;;5031621;28;20017;-79
2022/05/29 19:47:17;;;;;;;0.45;0.45;;;11.80;99.90;;;;;;5026162;28;20493;-84
2022/05/29 19:49:44;;;;;;;0.80;0.50;;;11.80;99.90;;;;;;5025539;28;20013;-84
2022/05/29 19:52:11;;;;;;;1.50;0.30;;;11.80;99.90;;;;;;5022485;28;20118;-83
2022/05/29 19:54:36;;;;;;;1.75;0.70;;;11.70;99.90;;;;;;5018833;28;20069;-84
2022/05/29 19:57:05;;;;;;;0.85;0.47;;;11.70;99.90;;;;;;5018619;28;20026;-84
2022/05/29 19:59:31;;;;;;;0.47;0.47;;;11.60;99.90;;;;;;5045836;23;20047;-85
2022/05/29 20:01:57;;;;;;;0.40;0.40;;;11.60;99.90;;;;;;5067936;28;20047;-86
2022/05/29 20:04:23;;;;;;;3.67;0.70;;;11.50;99.90;;;;;;5068284;28;21207;-86
2022/05/29 20:06:49;;;;;;;2.05;0.63;;;11.40;99.90;;;;;;5069355;28;20047;-84
2022/05/29 20:09:15;;;;;;;0.63;0.60;;;11.40;99.90;;;;;;5062960;28;20557;-85
2022/05/29 20:11:43;;;;;;;1.38;0.90;;;11.30;99.90;;;;;;5047324;28;21402;-87
2022/05/29 20:14:13;;;;;;;0.50;0.50;;;11.20;99.90;;;;;;5044067;28;20066;-85
2022/05/29 20:16:47;;;;;;;0.70;0.50;;;11.10;99.90;;;;;;5037990;28;20102;-83
2022/05/29 20:19:14;;;;;;;0.85;0.50;;;10.90;99.90;;;;;;5039300;28;20044;-83
2022/05/29 20:21:41;;;;;;;0.70;0.60;;;10.80;99.90;;;;;;5042869;28;20088;-83
2022/05/29 20:24:10;;;;;;;0.82;0.50;;;10.70;99.90;;;;;;5047718;28;20017;-81
2022/05/29 20:26:37;;;;;;;0.40;0.40;;;10.60;99.90;;;;;;5045231;28;20510;-82
2022/05/29 20:29:03;;;;;;;0.60;0.50;;;10.40;99.90;;;;;;5048365;28;20028;-82
2022/05/29 20:31:31;;;;;;;0.65;0.60;;;10.30;99.90;;;;;;5046278;28;20485;-83
2022/05/29 20:33:58;;;;;;;0.95;0.60;;;10.10;99.90;;;;;;5047780;28;20029;-82
2022/05/29 20:36:26;;;;;;;0.50;0.50;;;10.00;99.90;;;;;;5044538;28;20038;-84
2022/05/29 20:38:52;;;;;;;0.50;0.50;;;9.90;99.90;;;;;;5036525;28;20060;-87
2022/05/29 20:41:21;;;;;;;0.50;0.50;;;9.70;99.90;;;;;;5037533;28;20039;-88
2022/05/29 20:43:48;;;;;;;0.75;0.50;;;9.50;99.90;;;;;;5038642;28;20029;-86
2022/05/29 20:49:18;;;;;;;0.77;0.60;;;9.20;99.90;;;;;;5040160;28;20091;-89
2022/05/29 20:51:46;;;;;;;1.48;0.63;;;9.00;99.90;;;;;;5043307;28;20029;-84
2022/05/29 20:54:18;;;;;;;0.45;0.45;;;8.90;99.90;;;;;;5040349;28;20051;-85
2022/05/29 20:56:44;;;;;;;;;;;8.80;99.90;;;;;;5043132;28;20025;-84
2022/05/29 20:59:12;;;;;;;0.60;0.60;;;8.70;99.90;;;;;;5056791;22;19905;-81
2022/05/29 21:01:39;;;;;;;1.00;0.90;;;8.60;99.90;;;;;;5008118;28;20405;-80
2022/05/29 21:04:05;;;;;;;1.42;0.90;;;8.50;99.90;;;;;;5007389;28;20355;-80
2022/05/29 21:06:38;;;;;;;1.05;0.95;;;8.40;99.90;;;;;;5008167;28;20026;-80
2022/05/29 21:09:04;;;;;;;0.88;0.80;;;8.40;99.90;;;;;;5005042;28;20064;-81
2022/05/29 21:11:31;;;;;;;1.55;0.90;;;8.40;99.90;;;;;;5003249;28;20569;-80
2022/05/29 21:14:03;;;;;;;0.88;0.60;;;8.40;99.90;;;;;;5005332;28;20076;-81
2022/05/29 21:16:30;;;;;;;0.55;0.55;;;8.30;99.90;;;;;;5011650;28;20017;-81
2022/05/29 21:18:58;;;;;;;0.70;0.70;;;8.30;99.90;;;;;;5007841;28;20026;-82
2022/05/29 21:21:30;;;;;;;1.00;1.00;;;8.20;99.90;;;;;;5005058;28;20448;-82
2022/05/29 21:24:01;;;;;;;1.58;0.80;;;8.10;99.90;;;;;;5000054;28;20268;-86
2022/05/29 21:26:30;;;;;;;2.45;1.02;;;8.00;99.90;;;;;;4987702;28;20059;-83
2022/05/29 21:29:00;;;;;;;1.23;0.80;;;8.00;99.90;;;;;;4997987;28;20022;-82
2022/05/29 21:31:29;;;;;;;1.73;0.65;;;7.90;99.90;;;;;;4998117;28;20043;-85
2022/05/29 21:33:55;;;;;;;0.77;0.77;;;7.80;99.90;;;;;;4998983;28;20050;-85
2022/05/29 21:36:29;;;;;;;1.55;1.00;;;7.80;99.90;;;;;;4989966;28;20041;-84
2022/05/29 21:39:06;;;;;;;2.35;0.90;;;7.70;99.90;;;;;;4985816;28;20479;-83
2022/05/29 21:41:34;;;;;;;0.95;0.90;;;7.70;99.90;;;;;;4959460;28;20036;-84
2022/05/29 21:44:05;;;;;;;3.33;0.90;;;7.60;99.90;;;;;;4986753;28;20519;-84
2022/05/29 21:46:36;;;;;;;1.23;1.20;;;7.60;99.90;;;;;;4969672;28;20181;-83
2022/05/29 21:49:14;;;;;;;2.58;1.27;;;7.50;99.90;;;;;;4968778;28;20736;-84
2022/05/29 21:51:41;;;;;;;0.80;0.80;;;7.40;99.90;;;;;;4970312;28;20266;-83
2022/05/29 21:54:08;;;;;;;1.92;1.10;;;7.30;99.90;;;;;;4963975;28;20567;-84
2022/05/29 21:56:34;;;;;;;2.70;1.00;;;7.20;99.90;;;;;;4973731;28;20018;-83
2022/05/29 21:59:00;;;;;;;1.25;1.23;;;7.10;99.90;;;;;;4974792;28;20345;-83
2022/05/29 22:01:26;;;;;;;1.20;1.10;;;7.00;99.90;;;;;;4970516;28;20034;-80
2022/05/29 22:03:55;;;;;;;1.40;1.05;;;6.90;99.90;;;;;;4977246;28;20112;-87
2022/05/29 22:06:30;;;;;;;0.90;0.90;;;6.80;99.90;;;;;;4976319;28;20018;-78
2022/05/29 22:08:56;;;;;;;1.33;1.00;;;6.70;99.90;;;;;;5008926;28;20033;-78
2022/05/29 22:11:24;;;;;;;1.30;1.20;;;6.60;99.90;;;;;;5008264;28;20536;-78
2022/05/29 22:13:50;;;;;;;1.42;1.33;;;6.50;99.90;;;;;;5010522;28;20018;-78
2022/05/29 22:16:19;;;;;;;1.60;1.50;;;6.40;99.90;;;;;;5009891;28;20144;-78
2022/05/29 22:18:45;;;;;;;2.22;1.35;;;6.30;99.90;;;;;;5010098;28;20021;-77
2022/05/29 22:21:22;;;;;;;2.65;1.13;;;6.30;99.90;;;;;;5009405;28;20022;-78
2022/05/29 22:23:49;;;;;;;1.17;0.90;;;6.30;99.90;;;;;;5009782;28;20022;-78
2022/05/29 22:26:17;;;;;;;1.27;1.20;;;6.20;99.90;;;;;;5009710;28;20018;-78
2022/05/29 22:28:43;;;;;;;1.90;1.30;;;6.10;99.90;;;;;;4992087;28;20026;-78
2022/05/29 22:31:23;;;;;;;1.77;1.50;;;6.00;99.90;;;;;;5010215;28;20025;-78
2022/05/29 22:33:49;;;;;;;1.42;1.20;;;6.00;99.90;;;;;;5003657;28;20471;-78
2022/05/29 22:36:37;;;;;;;1.58;1.42;;;5.90;99.90;;;;;;5009607;28;20040;-78
2022/05/29 22:39:04;;;;;;;1.15;1.05;;;5.90;99.90;;;;;;5009506;28;20018;-78
2022/05/29 22:41:29;;;;;;;1.52;1.42;;;6.00;99.90;;;;;;5009235;28;20513;-78
2022/05/29 22:43:56;;;;;;;1.52;1.40;;;5.90;99.90;;;;;;5010498;28;20022;-78
2022/05/29 22:46:22;;;;;;;2.63;1.80;;;6.00;99.90;;;;;;5010012;28;20016;-78
2022/05/29 22:48:55;;;;;;;1.25;1.15;;;6.00;99.90;;;;;;5009568;28;20477;-78
2022/05/29 22:51:45;;;;;;;1.30;1.00;;;6.00;99.90;;;;;;5009878;28;20022;-78
2022/05/29 22:54:20;;;;;;;3.15;1.63;;;5.90;99.90;;;;;;5009521;28;20101;-78
2022/05/29 22:56:46;;;;;;;2.03;1.40;;;5.80;99.90;;;;;;5009512;28;20100;-78
2022/05/29 22:59:12;;;;;;;2.30;1.77;;;5.70;99.90;;;;;;5030501;22;20073;-81
2022/05/29 23:01:43;;;;;;;1.10;1.10;;;5.70;99.90;;;;;;5040874;28;20052;-81
2022/05/29 23:04:39;;;;;;;1.30;1.20;;;5.60;99.90;;;;;;5033332;28;20383;-81
2022/05/29 23:07:06;;;;;;;2.67;1.65;;;5.60;99.90;;;;;;5033600;28;20036;-81
2022/05/29 23:09:31;;;;;;;2.33;1.73;;;5.50;99.90;;;;;;5033601;28;20029;-81
2022/05/29 23:11:57;;;;;;;1.00;1.00;;;5.50;99.90;;;;;;5032813;28;20052;-81
2022/05/29 23:14:24;;;;;;;1.40;1.30;;;5.40;99.90;;;;;;5014900;28;20505;-82
2022/05/29 23:16:50;;;;;;;1.50;1.40;;;5.40;99.90;;;;;;5033065;28;20032;-81
2022/05/29 23:19:16;;;;;;;2.90;1.42;;;5.30;99.90;;;;;;5032637;28;20021;-81
2022/05/29 23:21:44;;;;;;;2.92;1.73;;;5.20;99.90;;;;;;5032722;28;20124;-81
2022/05/29 23:24:16;;;;;;;1.17;1.17;;;5.20;99.90;;;;;;5014917;28;20123;-81
2022/05/29 23:26:42;;;;;;;;;;;5.30;99.90;;;;;;5032645;28;20018;-81
2022/05/29 23:29:08;;;;;;;2.20;1.15;;;5.20;99.90;;;;;;5032689;28;19959;-81
2022/05/29 23:31:37;;;;;;;1.30;1.23;;;5.20;99.90;;;;;;5032633;28;20029;-81
2022/05/29 23:34:03;;;;;;;2.47;1.15;;;5.10;99.90;;;;;;5032610;28;20014;-81
2022/05/29 23:36:30;;;;;;;1.50;1.40;;;5.10;99.90;;;;;;5015107;28;20374;-81
2022/05/29 23:38:55;;;;;;;3.43;1.40;;;5.10;99.90;;;;;;5031653;28;20025;-81
2022/05/29 23:44:06;;;;;;;2.78;1.50;;;5.00;99.90;;;;;;5036043;28;20060;-81
2022/05/29 23:46:43;;;;;;;1.02;1.00;;;5.00;99.90;;;;;;5032351;28;20014;-82
2022/05/29 23:49:10;;;;;;;1.00;1.00;;;5.00;99.90;;;;;;5025380;28;20048;-82
2022/05/29 23:51:35;;;;;;;1.20;1.10;;;5.00;99.90;;;;;;5032639;28;20016;-80
2022/05/29 23:54:01;;;;;;;1.55;1.13;;;5.00;99.90;;;;;;5031873;28;20022;-81
2022/05/29 23:56:27;;;;;;;1.40;1.30;;;5.00;99.90;;;;;;5032026;28;20055;-80
2022/05/29 23:58:52;;;;;;;1.02;1.02;;;5.00;99.90;;;;;;5031741;28;20049;-80
